Terminal Aerodrome Forecast
Issued by NWS

Home | Current Version | Previous Version | Text Only | Print | Product List | Glossary On
Versions: 1 2 3 4 5 6 7 8 9 10 11 12 13
000
FTUS41 KBTV 311120
TAFSLK
TAF
KSLK 311120Z 3112/0112 25006KT P6SM SCT070
     FM311400 26009G16KT P6SM BKN070
     FM010000 23005KT P6SM SCT060
     FM010700 23003KT 5SM -SHRA BR BKN035 OVC050=

USA.gov is the U.S. government's official web portal to all federal, state and local government web resources and services.